Time;durP1;ratioP1;P1;durP2;ratioP2;P2;SDS_P1;SDS_P2;PMS_P1;PMS_P2;Temp;Humidity;BMP_temperature;BMP_pressure;BME280_temperature;BME280_humidity;BME280_pressure;Samples;Min_cycle;Max_cycle;Signal;HPM_P1;HPM_P2
2021/08/15 00:02:24;;;;;;;10.05;4.47;;;;;;;;;;5034665;28;20383;-75
2021/08/15 00:04:50;;;;;;;8.80;4.55;;;;;;;;;;5052146;28;20056;-75
2021/08/15 00:07:18;;;;;;;8.10;4.35;;;;;;;;;;5052821;28;20029;-75
2021/08/15 00:09:44;;;;;;;7.38;4.80;;;;;;;;;;5052426;28;20029;-76
2021/08/15 00:12:10;;;;;;;8.95;4.25;;;;;;;;;;5034661;28;20032;-74
2021/08/15 00:14:36;;;;;;;9.90;4.28;;;;;;;;;;5034612;28;20514;-74
2021/08/15 00:17:03;;;;;;;9.25;4.32;;;;;;;;;;5052432;28;20125;-75
2021/08/15 00:19:29;;;;;;;9.68;4.78;;;;;;;;;;5052278;28;20025;-75
2021/08/15 00:21:55;;;;;;;7.68;4.63;;;;;;;;;;5034313;28;20391;-75
2021/08/15 00:24:21;;;;;;;8.60;4.22;;;;;;;;;;5052210;28;20028;-74
2021/08/15 00:26:47;;;;;;;8.05;4.25;;;;;;;;;;5034423;28;20025;-76
2021/08/15 00:29:13;;;;;;;7.00;4.50;;;;;;;;;;5034366;28;20037;-75
2021/08/15 00:31:40;;;;;;;7.97;3.92;;;;;;;;;;5052151;28;20100;-75
2021/08/15 00:34:06;;;;;;;9.00;4.30;;;;;;;;;;5052147;28;20174;-75
2021/08/15 00:36:32;;;;;;;7.13;4.32;;;;;;;;;;5052142;28;20109;-74
2021/08/15 00:38:58;;;;;;;8.43;4.35;;;;;;;;;;5034278;28;20036;-75
2021/08/15 00:41:24;;;;;;;7.20;4.60;;;;;;;;;;5034423;28;20045;-76
2021/08/15 00:43:50;;;;;;;7.30;4.25;;;;;;;;;;5052220;28;20029;-74
2021/08/15 00:46:18;;;;;;;8.00;4.32;;;;;;;;;;5052097;28;20025;-76
2021/08/15 00:48:44;;;;;;;6.90;3.80;;;;;;;;;;5052031;28;20116;-76
2021/08/15 00:51:10;;;;;;;6.82;4.05;;;;;;;;;;5033730;28;20088;-75
2021/08/15 00:53:36;;;;;;;7.30;4.28;;;;;;;;;;5051945;28;20025;-75
2021/08/15 00:56:06;;;;;;;8.27;4.22;;;;;;;;;;5033935;28;20178;-75
2021/08/15 00:58:39;;;;;;;9.30;4.40;;;;;;;;;;5033979;28;20494;-74
2021/08/15 01:01:05;;;;;;;7.40;4.45;;;;;;;;;;5052073;28;20099;-75
2021/08/15 01:03:32;;;;;;;7.45;4.40;;;;;;;;;;5034234;28;20032;-74
2021/08/15 01:05:59;;;;;;;7.43;4.43;;;;;;;;;;5051980;28;20021;-74
2021/08/15 01:08:26;;;;;;;8.00;4.38;;;;;;;;;;5051944;28;20127;-74
2021/08/15 01:10:52;;;;;;;8.50;4.60;;;;;;;;;;5034046;28;20029;-74
2021/08/15 01:13:18;;;;;;;8.82;3.70;;;;;;;;;;5034141;28;20208;-75
2021/08/15 01:15:44;;;;;;;7.75;4.28;;;;;;;;;;5052986;28;20025;-75
2021/08/15 01:18:17;;;;;;;8.38;4.60;;;;;;;;;;5037950;28;20029;-74
2021/08/15 01:20:43;;;;;;;10.18;4.38;;;;;;;;;;5055961;28;20086;-75
2021/08/15 01:23:09;;;;;;;8.27;4.10;;;;;;;;;;5037852;28;20033;-74
2021/08/15 01:25:35;;;;;;;7.72;4.60;;;;;;;;;;5055695;28;20028;-74
2021/08/15 01:28:01;;;;;;;8.65;4.20;;;;;;;;;;5037749;28;20021;-75
2021/08/15 01:30:27;;;;;;;7.40;4.25;;;;;;;;;;5055511;28;20412;-74
2021/08/15 01:32:53;;;;;;;7.38;4.40;;;;;;;;;;5037575;28;20052;-74
2021/08/15 01:35:20;;;;;;;8.30;4.55;;;;;;;;;;5055466;28;20029;-75
2021/08/15 01:37:46;;;;;;;7.80;4.30;;;;;;;;;;5055618;28;20025;-75
2021/08/15 01:40:13;;;;;;;8.07;4.72;;;;;;;;;;5037472;28;20021;-74
2021/08/15 01:42:39;;;;;;;6.32;4.22;;;;;;;;;;5037465;28;20025;-76
2021/08/15 01:45:10;;;;;;;6.20;3.65;;;;;;;;;;5037446;28;20021;-74
2021/08/15 01:47:36;;;;;;;8.52;4.55;;;;;;;;;;5055365;28;20029;-74
2021/08/15 01:50:02;;;;;;;10.15;5.32;;;;;;;;;;5034587;28;20029;-77
2021/08/15 01:52:28;;;;;;;8.13;4.55;;;;;;;;;;5050293;28;20052;-75
2021/08/15 01:54:54;;;;;;;8.05;4.43;;;;;;;;;;5055161;28;20454;-76
2021/08/15 01:57:20;;;;;;;9.10;4.60;;;;;;;;;;5037354;28;20565;-74
2021/08/15 01:59:46;;;;;;;10.32;4.65;;;;;;;;;;5055281;28;20028;-74
2021/08/15 02:02:12;;;;;;;11.63;4.78;;;;;;;;;;5055277;28;20021;-74
2021/08/15 02:04:38;;;;;;;6.55;4.07;;;;;;;;;;5054975;28;20035;-75
2021/08/15 02:07:05;;;;;;;7.63;4.35;;;;;;;;;;5054891;28;20423;-75
2021/08/15 02:09:31;;;;;;;7.65;4.35;;;;;;;;;;5036886;28;20028;-74
2021/08/15 02:11:57;;;;;;;6.70;4.28;;;;;;;;;;5054958;28;20021;-75
2021/08/15 02:14:23;;;;;;;8.43;4.55;;;;;;;;;;5036981;28;20082;-74
2021/08/15 02:16:49;;;;;;;10.80;4.47;;;;;;;;;;5037042;28;20024;-75
2021/08/15 02:19:15;;;;;;;7.80;4.57;;;;;;;;;;5054677;28;20052;-74
2021/08/15 02:21:41;;;;;;;9.05;4.70;;;;;;;;;;5036788;28;20116;-74
2021/08/15 02:24:08;;;;;;;8.45;4.15;;;;;;;;;;5036539;28;20486;-75
2021/08/15 02:26:34;;;;;;;10.00;4.70;;;;;;;;;;5035981;28;20057;-74
2021/08/15 02:29:00;;;;;;;7.43;4.40;;;;;;;;;;5036655;28;20033;-75
2021/08/15 02:31:26;;;;;;;7.82;3.88;;;;;;;;;;5054512;28;20021;-75
2021/08/15 02:33:52;;;;;;;11.20;4.07;;;;;;;;;;5054601;28;20610;-76
2021/08/15 02:36:18;;;;;;;9.05;4.35;;;;;;;;;;5036293;28;20112;-74
2021/08/15 02:38:44;;;;;;;10.60;4.70;;;;;;;;;;5054326;28;20029;-74
2021/08/15 02:41:10;;;;;;;7.13;4.18;;;;;;;;;;5054186;28;20029;-75
2021/08/15 02:43:36;;;;;;;7.18;4.57;;;;;;;;;;5036529;28;20025;-76
2021/08/15 02:46:02;;;;;;;6.43;3.83;;;;;;;;;;5036476;28;20074;-74
2021/08/15 02:48:31;;;;;;;7.13;4.25;;;;;;;;;;5036204;28;20028;-74
2021/08/15 02:50:57;;;;;;;8.05;4.35;;;;;;;;;;5036233;28;20025;-74
2021/08/15 02:53:25;;;;;;;7.78;4.45;;;;;;;;;;5036176;28;20522;-75
2021/08/15 02:55:51;;;;;;;7.50;4.50;;;;;;;;;;5053913;28;20063;-74
2021/08/15 02:58:17;;;;;;;7.53;4.43;;;;;;;;;;5053932;28;20578;-75
2021/08/15 03:00:43;;;;;;;8.32;4.47;;;;;;;;;;5035965;28;20518;-75
2021/08/15 03:03:09;;;;;;;6.60;4.13;;;;;;;;;;5035986;28;20025;-74
2021/08/15 03:05:35;;;;;;;7.30;4.10;;;;;;;;;;5053827;28;20021;-75
2021/08/15 03:08:01;;;;;;;7.55;4.25;;;;;;;;;;5035690;28;20053;-75
2021/08/15 03:10:27;;;;;;;7.15;4.10;;;;;;;;;;5053555;28;20033;-75
2021/08/15 03:12:53;;;;;;;8.75;4.72;;;;;;;;;;5053715;28;20021;-75
2021/08/15 03:15:19;;;;;;;7.47;4.30;;;;;;;;;;5053639;28;20029;-75
2021/08/15 03:17:45;;;;;;;7.53;4.30;;;;;;;;;;5053624;28;20092;-75
2021/08/15 03:20:11;;;;;;;6.22;3.90;;;;;;;;;;5035771;28;20037;-75
2021/08/15 03:22:38;;;;;;;8.93;4.13;;;;;;;;;;5053648;28;20021;-75
2021/08/15 03:25:04;;;;;;;7.10;4.43;;;;;;;;;;5053535;28;20025;-74
2021/08/15 03:27:30;;;;;;;9.75;4.47;;;;;;;;;;5035642;28;20021;-74
2021/08/15 03:29:56;;;;;;;7.18;4.40;;;;;;;;;;5035181;28;20037;-74
2021/08/15 03:32:22;;;;;;;6.70;4.22;;;;;;;;;;5053194;28;20025;-74
2021/08/15 03:34:48;;;;;;;8.15;4.28;;;;;;;;;;5035055;28;20079;-74
2021/08/15 03:37:16;;;;;;;7.93;4.05;;;;;;;;;;5053050;28;20045;-74
2021/08/15 03:39:43;;;;;;;7.93;4.78;;;;;;;;;;5034429;28;20058;-74
2021/08/15 03:42:09;;;;;;;9.07;4.70;;;;;;;;;;5035371;28;20024;-75
2021/08/15 03:44:35;;;;;;;7.88;4.53;;;;;;;;;;5035147;28;20059;-75
2021/08/15 03:47:01;;;;;;;10.80;4.85;;;;;;;;;;5035533;28;20040;-75
2021/08/15 03:49:27;;;;;;;8.13;4.28;;;;;;;;;;5035152;28;20040;-74
2021/08/15 03:51:54;;;;;;;8.45;4.25;;;;;;;;;;5050432;28;20061;-76
2021/08/15 03:54:20;;;;;;;7.35;4.80;;;;;;;;;;5045683;28;20073;-76
2021/08/15 03:56:50;;;;;;;9.60;4.63;;;;;;;;;;5035130;28;20017;-75
2021/08/15 03:59:16;;;;;;;9.43;4.28;;;;;;;;;;5034900;28;20048;-75
2021/08/15 04:01:42;;;;;;;8.77;4.38;;;;;;;;;;5052822;28;20052;-75
2021/08/15 04:04:08;;;;;;;8.55;5.30;;;;;;;;;;5034864;28;20044;-74
2021/08/15 04:06:34;;;;;;;6.97;4.20;;;;;;;;;;5034652;28;20027;-74
2021/08/15 04:09:01;;;;;;;8.25;4.80;;;;;;;;;;5052466;28;20471;-75
2021/08/15 04:11:28;;;;;;;7.60;4.10;;;;;;;;;;5052783;28;20067;-77
2021/08/15 04:13:54;;;;;;;8.70;4.55;;;;;;;;;;5052674;28;20027;-74
2021/08/15 04:16:20;;;;;;;8.02;4.68;;;;;;;;;;5034725;28;20056;-74
2021/08/15 04:18:46;;;;;;;9.40;4.60;;;;;;;;;;5034628;28;20083;-74
2021/08/15 04:21:12;;;;;;;7.93;4.68;;;;;;;;;;5052473;28;20424;-74
2021/08/15 04:23:39;;;;;;;7.55;4.40;;;;;;;;;;5034620;28;20098;-75
2021/08/15 04:26:05;;;;;;;8.35;4.63;;;;;;;;;;5052377;28;20029;-75
2021/08/15 04:28:31;;;;;;;7.25;4.70;;;;;;;;;;5034391;28;20107;-74
2021/08/15 04:30:57;;;;;;;8.43;4.55;;;;;;;;;;5034352;28;20067;-75
2021/08/15 04:33:26;;;;;;;8.02;4.78;;;;;;;;;;5052440;28;20479;-74
2021/08/15 04:35:53;;;;;;;9.43;4.80;;;;;;;;;;5052167;28;20009;-74
2021/08/15 04:38:20;;;;;;;9.80;4.72;;;;;;;;;;5052269;28;20178;-76
2021/08/15 04:40:46;;;;;;;10.23;4.57;;;;;;;;;;5034310;28;20040;-76
2021/08/15 04:43:12;;;;;;;10.20;4.75;;;;;;;;;;5052367;28;20078;-74
2021/08/15 04:45:38;;;;;;;9.05;4.95;;;;;;;;;;5052172;28;20104;-74
2021/08/15 04:48:04;;;;;;;8.05;4.55;;;;;;;;;;5052242;28;20579;-74
2021/08/15 04:50:30;;;;;;;8.20;4.63;;;;;;;;;;5051632;28;20045;-74
2021/08/15 04:52:56;;;;;;;7.82;4.53;;;;;;;;;;5051803;28;20116;-74
2021/08/15 04:55:23;;;;;;;8.63;4.90;;;;;;;;;;5034083;28;20492;-75
2021/08/15 04:57:49;;;;;;;7.90;4.78;;;;;;;;;;5034127;28;20029;-75
2021/08/15 05:00:15;;;;;;;8.90;4.60;;;;;;;;;;5034125;28;20127;-74
2021/08/15 05:02:41;;;;;;;7.70;5.15;;;;;;;;;;5051947;28;20097;-74
2021/08/15 05:05:07;;;;;;;7.80;4.68;;;;;;;;;;5033742;28;20078;-75
2021/08/15 05:07:33;;;;;;;10.85;4.90;;;;;;;;;;5034064;28;20395;-75
2021/08/15 05:09:59;;;;;;;8.90;4.70;;;;;;;;;;5034040;28;20496;-74
2021/08/15 05:12:26;;;;;;;7.38;4.72;;;;;;;;;;5034101;28;20530;-76
2021/08/15 05:14:52;;;;;;;9.63;5.30;;;;;;;;;;5051834;28;20021;-75
2021/08/15 05:17:18;;;;;;;10.88;4.57;;;;;;;;;;5051797;28;20017;-75
2021/08/15 05:19:44;;;;;;;8.55;4.38;;;;;;;;;;5033726;28;20029;-74
2021/08/15 05:22:10;;;;;;;7.85;4.68;;;;;;;;;;5051918;28;20092;-74
2021/08/15 05:24:36;;;;;;;8.32;4.75;;;;;;;;;;5033831;28;20075;-74
2021/08/15 05:27:02;;;;;;;7.07;4.40;;;;;;;;;;5051487;28;20025;-74
2021/08/15 05:29:28;;;;;;;7.43;4.80;;;;;;;;;;5033550;28;20059;-75
2021/08/15 05:31:54;;;;;;;10.85;5.45;;;;;;;;;;5033542;28;20028;-76
2021/08/15 05:34:20;;;;;;;9.27;4.70;;;;;;;;;;5033674;28;20024;-75
2021/08/15 05:36:46;;;;;;;7.85;4.55;;;;;;;;;;5033628;28;20021;-74
2021/08/15 05:39:12;;;;;;;11.32;4.93;;;;;;;;;;5051475;28;20518;-74
2021/08/15 05:41:38;;;;;;;7.70;4.80;;;;;;;;;;5051545;28;20047;-76
2021/08/15 05:44:04;;;;;;;8.90;5.00;;;;;;;;;;5051514;28;20021;-74
2021/08/15 05:46:30;;;;;;;9.77;5.03;;;;;;;;;;5051593;28;20025;-74
2021/08/15 05:48:56;;;;;;;8.32;4.38;;;;;;;;;;5033560;28;20040;-74
2021/08/15 05:51:22;;;;;;;10.20;5.07;;;;;;;;;;5051347;28;20087;-74
2021/08/15 05:53:48;;;;;;;9.60;4.75;;;;;;;;;;5031135;28;20032;-76
2021/08/15 05:56:14;;;;;;;8.60;4.72;;;;;;;;;;5040204;28;20109;-76
2021/08/15 05:58:40;;;;;;;9.13;5.03;;;;;;;;;;5049779;28;20021;-75
2021/08/15 06:01:07;;;;;;;8.27;4.78;;;;;;;;;;5033490;28;20502;-75
2021/08/15 06:03:33;;;;;;;8.65;4.97;;;;;;;;;;5036978;28;20028;-74
2021/08/15 06:05:59;;;;;;;12.55;5.53;;;;;;;;;;5036948;28;20021;-73
2021/08/15 06:08:25;;;;;;;8.82;4.78;;;;;;;;;;5054996;28;20079;-74
2021/08/15 06:10:53;;;;;;;10.98;4.75;;;;;;;;;;5054960;28;20166;-74
2021/08/15 06:13:19;;;;;;;7.03;4.57;;;;;;;;;;5037055;28;20056;-74
2021/08/15 06:15:45;;;;;;;11.73;5.50;;;;;;;;;;5054695;28;20032;-74
2021/08/15 06:18:13;;;;;;;8.73;4.85;;;;;;;;;;5036891;28;20167;-74
2021/08/15 06:20:39;;;;;;;9.50;5.75;;;;;;;;;;5054696;28;20017;-76
2021/08/15 06:23:05;;;;;;;8.75;5.30;;;;;;;;;;5054780;28;20024;-74
2021/08/15 06:25:31;;;;;;;10.80;5.18;;;;;;;;;;5036367;28;20041;-74
2021/08/15 06:27:57;;;;;;;9.27;5.10;;;;;;;;;;5036631;28;20021;-74
2021/08/15 06:30:23;;;;;;;9.35;5.30;;;;;;;;;;5051781;28;20042;-74
2021/08/15 06:32:54;;;;;;;9.45;4.80;;;;;;;;;;5047818;28;20367;-74
2021/08/15 06:35:27;;;;;;;14.30;5.40;;;;;;;;;;5056049;28;20036;-76
2021/08/15 06:37:54;;;;;;;8.10;5.60;;;;;;;;;;5074103;28;20056;-75
2021/08/15 06:40:24;;;;;;;9.93;5.68;;;;;;;;;;5074214;28;20016;-73
2021/08/15 06:42:50;;;;;;;7.47;4.75;;;;;;;;;;5074195;28;20028;-75
2021/08/15 06:45:18;;;;;;;10.75;5.75;;;;;;;;;;5055895;28;20042;-74
2021/08/15 06:47:44;;;;;;;15.18;5.75;;;;;;;;;;5055931;28;20021;-75
2021/08/15 06:50:10;;;;;;;10.43;5.68;;;;;;;;;;5055772;28;20046;-77
2021/08/15 06:52:37;;;;;;;9.98;5.68;;;;;;;;;;5055738;28;20086;-76
2021/08/15 06:55:03;;;;;;;9.35;5.57;;;;;;;;;;5073569;28;20483;-74
2021/08/15 06:57:29;;;;;;;10.13;5.03;;;;;;;;;;5073484;28;20025;-74
2021/08/15 06:59:55;;;;;;;9.05;5.43;;;;;;;;;;5073661;28;20020;-75
2021/08/15 07:02:21;;;;;;;10.50;5.70;;;;;;;;;;5055690;28;20047;-74
2021/08/15 07:04:48;;;;;;;10.38;5.88;;;;;;;;;;5073577;28;20028;-74
2021/08/15 07:07:14;;;;;;;8.65;5.43;;;;;;;;;;5055566;28;20027;-75
2021/08/15 07:09:40;;;;;;;9.60;5.38;;;;;;;;;;5055519;28;20071;-76
2021/08/15 07:12:06;;;;;;;10.60;5.93;;;;;;;;;;5073102;28;20078;-75
2021/08/15 07:14:32;;;;;;;10.07;5.70;;;;;;;;;;5073275;28;20082;-74
2021/08/15 07:16:58;;;;;;;8.55;5.78;;;;;;;;;;5073364;28;20476;-76
2021/08/15 07:19:24;;;;;;;7.53;5.15;;;;;;;;;;5055370;28;20476;-75
2021/08/15 07:21:51;;;;;;;9.55;5.75;;;;;;;;;;5055335;28;20085;-74
2021/08/15 07:24:17;;;;;;;10.73;5.13;;;;;;;;;;5055087;28;20411;-75
2021/08/15 07:26:43;;;;;;;9.07;5.72;;;;;;;;;;5054894;28;20024;-76
2021/08/15 07:29:09;;;;;;;9.32;5.68;;;;;;;;;;5055085;28;20021;-74
2021/08/15 07:31:35;;;;;;;8.45;5.30;;;;;;;;;;5060310;28;20033;-77
2021/08/15 07:34:01;;;;;;;8.88;5.55;;;;;;;;;;5053355;28;20091;-76
2021/08/15 07:36:28;;;;;;;9.35;5.38;;;;;;;;;;5035276;28;20384;-74
2021/08/15 07:38:54;;;;;;;8.88;5.93;;;;;;;;;;5053235;28;20067;-74
2021/08/15 07:41:20;;;;;;;7.57;5.47;;;;;;;;;;5053125;28;20013;-74
2021/08/15 07:43:46;;;;;;;8.25;5.55;;;;;;;;;;5035135;28;20047;-74
2021/08/15 07:46:15;;;;;;;8.50;5.53;;;;;;;;;;5053158;28;20029;-74
2021/08/15 07:48:42;;;;;;;9.13;5.45;;;;;;;;;;5035043;28;20029;-74
2021/08/15 07:51:08;;;;;;;10.82;5.97;;;;;;;;;;5034850;28;20031;-75
2021/08/15 07:53:34;;;;;;;10.80;5.75;;;;;;;;;;5035057;28;20033;-74
2021/08/15 07:56:00;;;;;;;10.32;5.70;;;;;;;;;;5053077;28;20033;-74
2021/08/15 07:58:27;;;;;;;10.80;5.78;;;;;;;;;;5052777;28;20021;-74
2021/08/15 08:00:53;;;;;;;10.80;6.20;;;;;;;;;;5052708;28;20025;-74
2021/08/15 08:03:19;;;;;;;11.05;5.90;;;;;;;;;;5052647;28;20021;-74
2021/08/15 08:05:46;;;;;;;9.50;6.15;;;;;;;;;;5052765;28;20432;-74
2021/08/15 08:08:12;;;;;;;11.13;5.75;;;;;;;;;;5034965;28;20383;-74
2021/08/15 08:10:39;;;;;;;10.50;5.38;;;;;;;;;;5034740;28;20037;-74
2021/08/15 08:13:08;;;;;;;7.72;5.13;;;;;;;;;;5034585;28;20021;-75
2021/08/15 08:15:35;;;;;;;9.50;5.20;;;;;;;;;;5052585;28;20025;-74
2021/08/15 08:18:01;;;;;;;9.18;5.78;;;;;;;;;;5052493;28;20016;-74
2021/08/15 08:20:28;;;;;;;8.45;5.35;;;;;;;;;;5052500;28;20032;-75
2021/08/15 08:22:54;;;;;;;11.15;6.07;;;;;;;;;;5052476;28;20017;-75
2021/08/15 08:25:20;;;;;;;8.88;5.95;;;;;;;;;;5051836;28;20061;-74
2021/08/15 08:27:46;;;;;;;9.75;5.47;;;;;;;;;;5034472;28;20032;-74
2021/08/15 08:30:13;;;;;;;11.20;5.43;;;;;;;;;;5052226;28;20044;-74
2021/08/15 08:32:39;;;;;;;7.57;5.70;;;;;;;;;;5034402;28;20479;-74
2021/08/15 08:35:05;;;;;;;9.93;5.75;;;;;;;;;;5052168;28;20480;-74
2021/08/15 08:37:31;;;;;;;10.55;6.38;;;;;;;;;;5034241;28;20480;-75
2021/08/15 08:39:59;;;;;;;10.15;5.47;;;;;;;;;;5052218;28;20052;-74
2021/08/15 08:42:26;;;;;;;9.27;5.88;;;;;;;;;;5052185;28;20056;-74
2021/08/15 08:44:52;;;;;;;11.38;6.35;;;;;;;;;;5034199;28;20606;-74
2021/08/15 08:47:19;;;;;;;10.52;6.38;;;;;;;;;;5034094;28;20476;-74
2021/08/15 08:49:45;;;;;;;8.68;5.97;;;;;;;;;;5051964;28;20036;-75
2021/08/15 08:52:11;;;;;;;10.38;6.00;;;;;;;;;;5033862;28;20041;-74
2021/08/15 08:54:37;;;;;;;11.32;5.75;;;;;;;;;;5034094;28;20032;-74
2021/08/15 08:57:03;;;;;;;10.95;6.00;;;;;;;;;;5034026;28;20028;-74
2021/08/15 08:59:29;;;;;;;11.98;5.97;;;;;;;;;;5051902;28;20020;-74
2021/08/15 09:01:55;;;;;;;9.70;5.45;;;;;;;;;;5051930;28;20519;-74
2021/08/15 09:04:21;;;;;;;9.93;5.65;;;;;;;;;;5033905;28;20090;-74
2021/08/15 09:06:48;;;;;;;10.80;5.82;;;;;;;;;;5033825;28;20032;-73
2021/08/15 09:09:15;;;;;;;10.68;6.28;;;;;;;;;;5033763;28;20380;-74
2021/08/15 09:11:42;;;;;;;14.15;6.22;;;;;;;;;;5033722;28;20021;-74
2021/08/15 09:14:10;;;;;;;11.82;6.40;;;;;;;;;;5051591;28;20025;-72
2021/08/15 09:16:51;;;;;;;10.80;6.15;;;;;;;;;;5051789;28;20025;-73
2021/08/15 09:19:29;;;;;;;10.02;5.30;;;;;;;;;;5051886;28;20028;-73
2021/08/15 09:21:56;;;;;;;11.20;6.00;;;;;;;;;;5051866;28;20025;-74
2021/08/15 09:24:22;;;;;;;8.88;5.57;;;;;;;;;;5033736;28;20100;-73
2021/08/15 09:26:56;;;;;;;12.60;5.93;;;;;;;;;;5051538;28;20048;-73
2021/08/15 09:29:22;;;;;;;8.85;5.57;;;;;;;;;;5051545;28;20595;-75
2021/08/15 09:31:48;;;;;;;8.75;5.45;;;;;;;;;;5043952;28;20053;-75
2021/08/15 09:34:25;;;;;;;9.82;5.45;;;;;;;;;;5051408;28;20020;-73
2021/08/15 09:36:52;;;;;;;8.98;5.15;;;;;;;;;;5035216;28;20021;-74
2021/08/15 09:39:29;;;;;;;10.48;5.70;;;;;;;;;;5037670;28;20017;-74
2021/08/15 09:41:55;;;;;;;11.18;5.28;;;;;;;;;;5037545;28;20028;-74
2021/08/15 09:44:21;;;;;;;11.80;5.70;;;;;;;;;;5037378;28;20025;-74
2021/08/15 09:47:03;;;;;;;7.85;5.22;;;;;;;;;;5037337;28;20043;-73
2021/08/15 09:49:35;;;;;;;9.48;5.78;;;;;;;;;;5037327;28;20032;-74
2021/08/15 09:52:01;;;;;;;;;;;;;;;;;;5037669;28;20059;-73
2021/08/15 09:54:27;;;;;;;13.90;5.65;;;;;;;;;;5055104;28;19905;-74
2021/08/15 09:56:56;;;;;;;9.65;5.85;;;;;;;;;;5055299;28;20017;-74
2021/08/15 09:59:23;;;;;;;8.55;5.72;;;;;;;;;;5037391;28;20108;-73
2021/08/15 10:01:52;;;;;;;8.13;4.97;;;;;;;;;;5055216;28;20025;-75
2021/08/15 10:04:18;;;;;;;7.85;5.15;;;;;;;;;;5037191;28;20115;-73
2021/08/15 10:06:45;;;;;;;8.15;5.13;;;;;;;;;;5037199;28;20063;-73
2021/08/15 10:09:11;;;;;;;13.30;6.20;;;;;;;;;;5054840;28;20095;-74
2021/08/15 10:11:39;;;;;;;11.40;5.70;;;;;;;;;;5037172;28;20101;-74
2021/08/15 10:14:05;;;;;;;9.82;5.55;;;;;;;;;;5037003;28;20025;-73
2021/08/15 10:16:34;;;;;;;9.82;5.63;;;;;;;;;;5054777;28;20025;-76
2021/08/15 10:19:02;;;;;;;9.88;5.72;;;;;;;;;;5036699;28;20021;-74
2021/08/15 10:21:28;;;;;;;9.68;5.45;;;;;;;;;;5054806;28;20599;-74
2021/08/15 10:24:05;;;;;;;9.93;6.10;;;;;;;;;;5054622;28;20025;-74
2021/08/15 10:26:31;;;;;;;9.90;5.70;;;;;;;;;;5036567;28;20052;-74
2021/08/15 10:28:57;;;;;;;9.90;5.43;;;;;;;;;;5054325;28;20480;-73
2021/08/15 10:31:23;;;;;;;11.90;5.57;;;;;;;;;;5054587;28;20048;-73
2021/08/15 10:33:53;;;;;;;10.60;5.72;;;;;;;;;;5036628;28;20017;-74
2021/08/15 10:36:19;;;;;;;11.20;5.47;;;;;;;;;;5036563;28;20553;-73
2021/08/15 10:38:46;;;;;;;11.55;5.47;;;;;;;;;;5036441;28;20025;-74
2021/08/15 10:41:12;;;;;;;9.07;4.97;;;;;;;;;;5036324;28;20107;-74
2021/08/15 10:43:38;;;;;;;10.57;5.30;;;;;;;;;;5036219;28;20025;-73
2021/08/15 10:46:11;;;;;;;9.13;4.97;;;;;;;;;;5054004;28;20083;-73
2021/08/15 10:48:54;;;;;;;8.40;4.82;;;;;;;;;;5053456;28;20464;-76
2021/08/15 10:51:20;;;;;;;;;;;;;;;;;;5054698;28;20087;-73
2021/08/15 10:53:46;;;;;;;9.50;5.32;;;;;;;;;;5053952;28;19913;-73
2021/08/15 10:56:12;;;;;;;10.05;5.35;;;;;;;;;;5053807;28;20055;-74
2021/08/15 10:58:46;;;;;;;12.15;5.47;;;;;;;;;;5053939;28;20021;-73
2021/08/15 11:01:13;;;;;;;8.75;4.80;;;;;;;;;;5053883;28;20029;-73
2021/08/15 11:03:48;;;;;;;7.45;4.78;;;;;;;;;;5036034;28;20031;-73
2021/08/15 11:06:41;;;;;;;7.53;4.90;;;;;;;;;;5053998;28;20021;-73
2021/08/15 11:09:08;;;;;;;7.30;4.95;;;;;;;;;;5027490;28;20043;-73
2021/08/15 11:11:37;;;;;;;7.05;4.90;;;;;;;;;;5036293;28;20029;-73
2021/08/15 11:14:21;;;;;;;9.07;4.72;;;;;;;;;;5053717;28;20033;-74
2021/08/15 11:16:51;;;;;;;8.73;5.13;;;;;;;;;;5053496;28;20419;-74
2021/08/15 11:19:17;;;;;;;9.77;5.25;;;;;;;;;;5053698;28;20063;-73
2021/08/15 11:22:02;;;;;;;9.27;5.10;;;;;;;;;;5053618;28;20484;-74
2021/08/15 11:24:29;;;;;;;14.10;5.68;;;;;;;;;;5053443;28;20036;-75
2021/08/15 11:26:55;;;;;;;8.63;5.00;;;;;;;;;;5035443;28;20028;-74
2021/08/15 11:29:22;;;;;;;11.02;5.40;;;;;;;;;;5053306;28;20037;-74
2021/08/15 11:31:49;;;;;;;8.93;5.20;;;;;;;;;;5053332;28;20029;-73
2021/08/15 11:34:15;;;;;;;8.85;5.15;;;;;;;;;;5030979;28;20376;-73
2021/08/15 11:36:41;;;;;;;8.65;4.90;;;;;;;;;;5053078;28;20089;-74
2021/08/15 11:39:08;;;;;;;7.55;4.95;;;;;;;;;;5035422;28;20120;-74
2021/08/15 11:41:35;;;;;;;13.45;5.50;;;;;;;;;;5035189;28;20498;-74
2021/08/15 11:44:01;;;;;;;9.07;4.63;;;;;;;;;;5035283;28;20033;-73
2021/08/15 11:46:27;;;;;;;9.00;5.07;;;;;;;;;;5053112;28;20053;-73
2021/08/15 11:48:54;;;;;;;10.48;4.88;;;;;;;;;;5052971;28;20488;-73
2021/08/15 11:51:20;;;;;;;8.93;5.10;;;;;;;;;;5034649;28;20033;-73
2021/08/15 11:53:49;;;;;;;9.10;5.15;;;;;;;;;;5052701;28;20040;-73
2021/08/15 11:56:21;;;;;;;8.73;5.35;;;;;;;;;;5035066;28;20056;-73
2021/08/15 11:58:48;;;;;;;8.68;5.22;;;;;;;;;;5034270;28;20083;-73
2021/08/15 12:01:15;;;;;;;8.35;4.78;;;;;;;;;;5052456;28;20021;-72
2021/08/15 12:03:42;;;;;;;8.02;5.07;;;;;;;;;;5052539;28;20034;-73
2021/08/15 12:06:08;;;;;;;8.20;5.13;;;;;;;;;;5052497;28;20029;-73
2021/08/15 12:08:35;;;;;;;8.05;4.72;;;;;;;;;;5034529;28;20017;-73
2021/08/15 12:11:02;;;;;;;8.80;4.30;;;;;;;;;;5052573;28;20614;-75
2021/08/15 12:13:39;;;;;;;9.77;4.82;;;;;;;;;;5052631;28;20017;-73
2021/08/15 12:16:05;;;;;;;9.50;5.43;;;;;;;;;;5052642;28;20024;-73
2021/08/15 12:18:39;;;;;;;7.80;4.63;;;;;;;;;;5052614;28;20383;-73
2021/08/15 12:21:35;;;;;;;9.38;5.15;;;;;;;;;;5052526;28;20025;-75
2021/08/15 12:24:07;;;;;;;8.23;4.50;;;;;;;;;;5035457;28;20033;-73
2021/08/15 12:26:55;;;;;;;7.32;4.80;;;;;;;;;;5034478;28;20040;-74
2021/08/15 12:29:30;;;;;;;7.35;4.40;;;;;;;;;;5034337;28;20064;-74
2021/08/15 12:32:02;;;;;;;9.07;4.80;;;;;;;;;;5052372;28;20041;-73
2021/08/15 12:34:28;;;;;;;;;;;;;;;;;;5052708;28;20041;-73
2021/08/15 12:36:55;;;;;;;7.55;5.05;;;;;;;;;;5052342;28;19905;-72
2021/08/15 12:39:32;;;;;;;13.20;5.15;;;;;;;;;;5034358;28;20028;-73
2021/08/15 12:42:03;;;;;;;10.02;4.57;;;;;;;;;;5034528;28;20046;-73
2021/08/15 12:44:30;;;;;;;9.45;4.63;;;;;;;;;;5031500;28;20032;-73
2021/08/15 12:47:07;;;;;;;7.82;4.93;;;;;;;;;;5052069;28;20031;-73
2021/08/15 12:49:38;;;;;;;9.93;4.95;;;;;;;;;;5034134;28;20033;-76
2021/08/15 12:52:12;;;;;;;10.45;4.47;;;;;;;;;;5034303;28;20075;-73
2021/08/15 12:54:57;;;;;;;7.75;4.78;;;;;;;;;;5034063;28;20027;-73
2021/08/15 12:57:23;;;;;;;7.05;4.70;;;;;;;;;;5052429;28;20036;-73
2021/08/15 12:59:49;;;;;;;9.35;4.72;;;;;;;;;;5051986;28;20036;-73
2021/08/15 13:02:15;;;;;;;10.55;4.40;;;;;;;;;;5034033;28;20110;-73
2021/08/15 13:04:41;;;;;;;9.20;4.93;;;;;;;;;;5034093;28;20049;-75
2021/08/15 13:07:07;;;;;;;6.72;4.40;;;;;;;;;;5051931;28;20071;-73
2021/08/15 13:09:33;;;;;;;8.27;4.53;;;;;;;;;;5034002;28;20571;-74
2021/08/15 13:11:59;;;;;;;7.97;4.50;;;;;;;;;;5055401;28;20476;-78
2021/08/15 13:14:25;;;;;;;7.65;4.30;;;;;;;;;;5037832;28;20025;-73
2021/08/15 13:16:56;;;;;;;7.18;4.00;;;;;;;;;;5055776;28;20021;-74
2021/08/15 13:19:22;;;;;;;7.05;4.22;;;;;;;;;;5037956;28;20074;-73
2021/08/15 13:21:48;;;;;;;7.63;4.38;;;;;;;;;;5037829;28;20009;-74
2021/08/15 13:24:14;;;;;;;7.45;4.22;;;;;;;;;;5037763;28;20021;-74
2021/08/15 13:26:40;;;;;;;8.50;4.93;;;;;;;;;;5037854;28;20017;-75
2021/08/15 13:29:06;;;;;;;8.57;4.15;;;;;;;;;;5055536;28;20029;-74
2021/08/15 13:31:33;;;;;;;6.97;4.03;;;;;;;;;;5037849;28;20025;-75
2021/08/15 13:33:59;;;;;;;6.75;4.18;;;;;;;;;;5052674;28;20021;-76
2021/08/15 13:36:25;;;;;;;9.90;5.28;;;;;;;;;;5047116;28;20055;-74
2021/08/15 13:38:51;;;;;;;7.88;4.25;;;;;;;;;;5034180;28;20238;-74
2021/08/15 13:41:17;;;;;;;10.00;4.80;;;;;;;;;;5055528;28;20057;-74
2021/08/15 13:43:43;;;;;;;6.90;3.95;;;;;;;;;;5055385;28;20028;-74
2021/08/15 13:46:09;;;;;;;8.82;4.22;;;;;;;;;;5037205;28;20071;-74
2021/08/15 13:48:37;;;;;;;6.95;3.83;;;;;;;;;;5037290;28;20028;-74
2021/08/15 13:51:03;;;;;;;8.18;4.75;;;;;;;;;;5037251;28;20036;-74
2021/08/15 13:53:29;;;;;;;8.05;4.30;;;;;;;;;;5055014;28;20124;-74
2021/08/15 13:55:55;;;;;;;6.53;3.80;;;;;;;;;;5037230;28;20492;-74
2021/08/15 13:58:21;;;;;;;8.27;4.75;;;;;;;;;;5036984;28;20051;-74
2021/08/15 14:00:50;;;;;;;7.05;3.88;;;;;;;;;;5054972;28;20029;-74
2021/08/15 14:03:20;;;;;;;6.65;3.92;;;;;;;;;;5055140;28;20051;-76
2021/08/15 14:05:46;;;;;;;7.65;4.60;;;;;;;;;;5055050;28;20025;-73
2021/08/15 14:08:12;;;;;;;8.35;4.45;;;;;;;;;;5054882;28;20028;-74
2021/08/15 14:10:43;;;;;;;7.95;4.53;;;;;;;;;;5036697;28;20032;-74
2021/08/15 14:13:09;;;;;;;7.93;4.65;;;;;;;;;;5054801;28;20020;-75
2021/08/15 14:15:36;;;;;;;7.60;4.63;;;;;;;;;;5037070;28;20641;-74
2021/08/15 14:18:02;;;;;;;7.45;4.40;;;;;;;;;;5054943;28;20032;-73
2021/08/15 14:20:28;;;;;;;8.48;4.70;;;;;;;;;;5054957;28;20021;-74
2021/08/15 14:22:54;;;;;;;6.55;4.78;;;;;;;;;;5036107;28;20032;-74
2021/08/15 14:25:20;;;;;;;7.53;4.18;;;;;;;;;;5054613;28;20053;-73
2021/08/15 14:27:47;;;;;;;8.07;4.80;;;;;;;;;;5054782;28;20029;-75
2021/08/15 14:30:14;;;;;;;7.20;4.60;;;;;;;;;;5054417;28;20040;-74
2021/08/15 14:32:40;;;;;;;9.48;4.47;;;;;;;;;;5054339;28;20029;-74
2021/08/15 14:35:06;;;;;;;8.95;4.75;;;;;;;;;;5054435;28;20021;-74
2021/08/15 14:37:32;;;;;;;8.63;5.00;;;;;;;;;;5036474;28;20057;-74
2021/08/15 14:39:59;;;;;;;8.35;4.30;;;;;;;;;;5036414;28;20048;-74
2021/08/15 14:42:25;;;;;;;8.32;4.53;;;;;;;;;;5054359;28;20052;-74